Time;durP1;ratioP1;P1;durP2;ratioP2;P2;SDS_P1;SDS_P2;PMS_P1;PMS_P2;Temp;Humidity;BMP_temperature;BMP_pressure;BME280_temperature;BME280_humidity;BME280_pressure;Samples;Min_cycle;Max_cycle;Signal;HPM_P1;HPM_P2
2022/09/03 00:04:31;;;;;;;7.40;2.10;;;;;;;;;;10411762;28;20029;-56
2022/09/03 00:10:04;;;;;;;6.43;2.10;;;;;;;;;;10423344;28;20043;-49
2022/09/03 00:15:18;;;;;;;3.65;2.00;;;;;;;;;;10427510;28;20041;-49
2022/09/03 00:20:32;;;;;;;3.50;2.00;;;;;;;;;;10410943;28;20042;-52
2022/09/03 00:25:41;;;;;;;2.75;1.85;;;;;;;;;;10431105;28;20041;-49
2022/09/03 00:30:45;;;;;;;2.88;1.98;;;;;;;;;;10426546;28;20026;-52
2022/09/03 00:35:50;;;;;;;3.45;2.00;;;;;;;;;;10415321;28;20028;-49
2022/09/03 00:40:53;;;;;;;3.00;2.10;;;;;;;;;;10428655;28;20021;-54
2022/09/03 00:46:15;;;;;;;3.90;1.77;;;;;;;;;;10412924;28;20037;-51
2022/09/03 00:51:34;;;;;;;4.82;2.13;;;;;;;;;;10437145;28;20117;-49
2022/09/03 00:56:52;;;;;;;3.92;2.00;;;;;;;;;;10414354;28;20378;-55
2022/09/03 01:02:11;;;;;;;2.97;1.80;;;;;;;;;;10409269;28;20021;-50
2022/09/03 01:07:13;;;;;;;2.67;1.90;;;;;;;;;;10393470;28;20040;-53
2022/09/03 01:12:23;;;;;;;2.95;1.70;;;;;;;;;;10423461;28;20037;-51
2022/09/03 01:17:29;;;;;;;2.17;1.55;;;;;;;;;;10392760;28;20033;-49
2022/09/03 01:22:42;;;;;;;3.72;1.73;;;;;;;;;;10390633;28;20025;-58
2022/09/03 01:28:12;;;;;;;3.70;1.98;;;;;;;;;;10406853;28;20036;-58
2022/09/03 01:33:39;;;;;;;1.85;1.63;;;;;;;;;;10402038;28;20039;-59
2022/09/03 01:38:50;;;;;;;2.00;1.75;;;;;;;;;;10435939;28;20494;-56
2022/09/03 01:44:23;;;;;;;2.70;1.90;;;;;;;;;;10408877;28;20059;-57
2022/09/03 01:49:37;;;;;;;1.95;1.60;;;;;;;;;;10402030;28;20662;-55
2022/09/03 01:55:04;;;;;;;1.58;1.45;;;;;;;;;;10399948;28;20049;-58
2022/09/03 02:00:05;;;;;;;2.13;1.70;;;;;;;;;;10396143;28;20037;-58
2022/09/03 02:05:15;;;;;;;2.08;1.52;;;;;;;;;;10394103;28;20374;-55
2022/09/03 02:10:19;;;;;;;2.65;1.73;;;;;;;;;;10393369;28;20474;-49
2022/09/03 02:15:22;;;;;;;3.42;1.52;;;;;;;;;;10406736;28;20029;-49
2022/09/03 02:20:26;;;;;;;3.70;1.70;;;;;;;;;;10406223;28;20160;-50
2022/09/03 02:25:37;;;;;;;1.95;1.70;;;;;;;;;;10406192;28;20022;-52
2022/09/03 02:30:37;;;;;;;2.35;1.55;;;;;;;;;;10395012;28;20469;-51
2022/09/03 02:35:39;;;;;;;2.40;1.60;;;;;;;;;;10418463;28;20042;-51
2022/09/03 02:40:40;;;;;;;1.52;1.42;;;;;;;;;;10392609;28;20053;-49
2022/09/03 02:45:46;;;;;;;2.45;1.80;;;;;;;;;;10392158;28;20050;-49
2022/09/03 02:50:47;;;;;;;1.95;1.63;;;;;;;;;;10406314;28;20042;-50
2022/09/03 02:55:47;;;;;;;2.38;1.50;;;;;;;;;;10409107;28;20049;-50
2022/09/03 03:00:48;;;;;;;1.40;1.30;;;;;;;;;;10435607;28;20025;-49
2022/09/03 03:05:58;;;;;;;1.92;1.60;;;;;;;;;;10403525;28;20039;-49
2022/09/03 03:10:59;;;;;;;2.00;1.52;;;;;;;;;;10414211;28;20045;-53
2022/09/03 03:16:02;;;;;;;2.17;1.50;;;;;;;;;;10413704;28;20034;-49
2022/09/03 03:21:08;;;;;;;2.40;1.58;;;;;;;;;;10413095;28;20040;-51
2022/09/03 03:26:17;;;;;;;1.60;1.45;;;;;;;;;;10411868;28;20260;-52
2022/09/03 03:31:20;;;;;;;2.35;1.50;;;;;;;;;;10435015;28;20025;-58
2022/09/03 03:36:22;;;;;;;1.70;1.60;;;;;;;;;;10432120;28;20438;-58
2022/09/03 03:41:34;;;;;;;1.90;1.58;;;;;;;;;;10420190;28;20032;-58
2022/09/03 03:46:39;;;;;;;1.48;1.38;;;;;;;;;;10420776;28;20478;-59
2022/09/03 03:51:40;;;;;;;1.60;1.50;;;;;;;;;;10420103;28;20025;-56
2022/09/03 03:56:40;;;;;;;3.40;1.47;;;;;;;;;;10421598;28;20099;-59
2022/09/03 04:01:40;;;;;;;1.50;1.40;;;;;;;;;;10401453;28;20022;-59
2022/09/03 04:06:41;;;;;;;2.70;1.67;;;;;;;;;;10411269;28;20029;-57
2022/09/03 04:11:41;;;;;;;1.63;1.20;;;;;;;;;;10427898;28;21262;-58
2022/09/03 04:16:45;;;;;;;2.57;1.50;;;;;;;;;;10417034;28;20033;-58
2022/09/03 04:21:46;;;;;;;1.70;1.48;;;;;;;;;;10410827;28;20079;-58
2022/09/03 04:26:46;;;;;;;1.92;1.30;;;;;;;;;;10410470;28;20029;-58
2022/09/03 04:37:05;;;;;;;1.60;1.50;;;;;;;;;;10406228;28;20183;-57
2022/09/03 04:42:06;;;;;;;1.40;1.30;;;;;;;;;;10395704;28;20504;-56
2022/09/03 04:47:06;;;;;;;2.10;1.60;;;;;;;;;;10395137;28;20486;-51
2022/09/03 04:52:06;;;;;;;1.45;1.20;;;;;;;;;;10410640;28;20473;-59
2022/09/03 04:57:07;;;;;;;1.53;1.33;;;;;;;;;;10409080;28;20476;-59
2022/09/03 05:02:09;;;;;;;1.50;1.37;;;;;;;;;;10409362;28;20025;-59
2022/09/03 05:07:10;;;;;;;1.60;1.50;;;;;;;;;;10406225;28;20036;-58
2022/09/03 05:12:11;;;;;;;1.58;1.48;;;;;;;;;;10407880;28;20033;-58
2022/09/03 05:17:12;;;;;;;1.33;1.23;;;;;;;;;;10408150;28;20033;-64
2022/09/03 05:22:12;;;;;;;8.47;1.33;;;;;;;;;;10386080;28;20075;-64
2022/09/03 05:27:15;;;;;;;2.50;1.80;;;;;;;;;;10397176;28;20485;-56
2022/09/03 05:32:16;;;;;;;2.20;1.50;;;;;;;;;;10396649;28;20037;-52
2022/09/03 05:37:16;;;;;;;2.57;1.67;;;;;;;;;;10400512;28;20033;-55
2022/09/03 05:42:16;;;;;;;8.83;1.80;;;;;;;;;;10408828;28;20447;-56
2022/09/03 05:47:17;;;;;;;8.10;2.40;;;;;;;;;;10440784;28;20032;-65
2022/09/03 05:52:20;;;;;;;6.43;2.28;;;;;;;;;;10427725;28;20024;-62
2022/09/03 05:57:21;;;;;;;14.13;2.33;;;;;;;;;;10410880;28;20052;-62
2022/09/03 06:02:21;;;;;;;3.88;1.67;;;;;;;;;;10396194;28;20032;-64
2022/09/03 06:07:22;;;;;;;2.67;1.65;;;;;;;;;;10406488;28;20042;-64
2022/09/03 06:12:22;;;;;;;4.68;2.13;;;;;;;;;;10398574;28;20025;-62
2022/09/03 06:17:22;;;;;;;7.23;2.13;;;;;;;;;;10406732;28;20033;-65
2022/09/03 06:22:24;;;;;;;8.87;2.37;;;;;;;;;;10391156;28;20589;-66
2022/09/03 06:27:24;;;;;;;21.63;2.97;;;;;;;;;;10418642;28;20021;-66
2022/09/03 06:32:25;;;;;;;11.03;2.80;;;;;;;;;;10418837;28;20032;-68
2022/09/03 06:37:25;;;;;;;10.97;1.90;;;;;;;;;;10441166;28;20029;-61
2022/09/03 06:42:25;;;;;;;9.50;2.13;;;;;;;;;;10418853;28;20234;-64
2022/09/03 06:47:27;;;;;;;5.03;2.27;;;;;;;;;;10416190;28;20095;-63
2022/09/03 06:52:28;;;;;;;2.63;1.70;;;;;;;;;;10413130;28;20501;-58
2022/09/03 06:57:29;;;;;;;8.82;2.05;;;;;;;;;;10419003;28;20088;-66
2022/09/03 07:02:29;;;;;;;13.43;2.30;;;;;;;;;;10403374;28;20060;-54
2022/09/03 07:07:30;;;;;;;8.07;2.07;;;;;;;;;;10409791;28;20511;-64
2022/09/03 07:12:36;;;;;;;5.83;2.10;;;;;;;;;;10413192;28;20071;-67
2022/09/03 07:17:36;;;;;;;3.25;1.90;;;;;;;;;;10431244;28;20163;-57
2022/09/03 07:22:37;;;;;;;6.05;1.67;;;;;;;;;;10412621;28;20160;-60
2022/09/03 07:27:37;;;;;;;7.20;2.17;;;;;;;;;;10415044;28;20021;-52
2022/09/03 07:32:39;;;;;;;9.00;2.37;;;;;;;;;;10414101;28;20021;-57
2022/09/03 07:37:41;;;;;;;5.65;1.80;;;;;;;;;;10416235;28;20433;-61
2022/09/03 07:42:42;;;;;;;4.53;2.35;;;;;;;;;;10416783;28;20067;-60
2022/09/03 07:47:48;;;;;;;19.30;3.70;;;;;;;;;;10435641;28;20124;-61
2022/09/03 07:52:48;;;;;;;25.92;4.15;;;;;;;;;;10427758;28;20029;-61
2022/09/03 07:57:49;;;;;;;16.58;3.88;;;;;;;;;;10414531;28;20108;-58
2022/09/03 08:02:51;;;;;;;19.20;3.40;;;;;;;;;;10424848;28;20024;-61
2022/09/03 08:07:52;;;;;;;19.90;2.85;;;;;;;;;;10422102;28;20721;-59
2022/09/03 08:12:52;;;;;;;16.80;3.20;;;;;;;;;;10421521;28;20025;-62
2022/09/03 08:17:53;;;;;;;9.32;2.95;;;;;;;;;;10396947;28;20428;-62
2022/09/03 08:23:01;;;;;;;7.97;2.53;;;;;;;;;;10411920;28;20521;-61
2022/09/03 08:28:02;;;;;;;15.40;3.28;;;;;;;;;;10424009;28;20488;-61
2022/09/03 08:33:05;;;;;;;14.77;2.53;;;;;;;;;;10438610;28;20040;-59
2022/09/03 08:38:07;;;;;;;15.00;2.47;;;;;;;;;;10411556;28;20057;-57
2022/09/03 08:43:18;;;;;;;9.32;2.88;;;;;;;;;;10406326;28;20083;-57
2022/09/03 08:48:22;;;;;;;12.80;2.70;;;;;;;;;;10434948;28;20063;-55
2022/09/03 08:53:56;;;;;;;15.02;2.80;;;;;;;;;;10424687;28;20437;-55
2022/09/03 08:58:57;;;;;;;8.55;2.30;;;;;;;;;;10400341;28;20053;-58
2022/09/03 09:04:13;;;;;;;5.78;2.15;;;;;;;;;;10401844;28;20508;-59
2022/09/03 09:09:31;;;;;;;8.07;1.83;;;;;;;;;;10403682;28;20061;-56
2022/09/03 09:14:48;;;;;;;8.73;2.00;;;;;;;;;;10408798;28;20026;-53
2022/09/03 09:20:07;;;;;;;14.50;2.50;;;;;;;;;;10403929;28;20071;-52
2022/09/03 09:25:13;;;;;;;2.25;1.65;;;;;;;;;;10420734;28;20040;-53
2022/09/03 09:30:16;;;;;;;2.55;1.52;;;;;;;;;;10407473;28;20090;-52
2022/09/03 09:35:18;;;;;;;4.80;1.75;;;;;;;;;;10426922;28;20057;-50
2022/09/03 09:40:32;;;;;;;6.35;2.00;;;;;;;;;;10411179;28;20056;-50
2022/09/03 09:45:33;;;;;;;5.20;1.67;;;;;;;;;;10414610;28;20040;-51
2022/09/03 09:50:34;;;;;;;3.00;1.70;;;;;;;;;;10405291;28;20528;-52
2022/09/03 09:55:36;;;;;;;3.43;1.67;;;;;;;;;;10399168;28;20116;-49
2022/09/03 10:00:37;;;;;;;3.00;1.65;;;;;;;;;;10405877;28;20079;-50
2022/09/03 10:05:39;;;;;;;4.20;1.63;;;;;;;;;;10399222;28;20366;-57
2022/09/03 10:10:44;;;;;;;4.22;1.85;;;;;;;;;;10397423;28;20028;-56
2022/09/03 10:15:49;;;;;;;1.50;1.40;;;;;;;;;;10408332;28;20389;-55
2022/09/03 10:21:14;;;;;;;3.08;1.83;;;;;;;;;;10409006;28;20068;-58
2022/09/03 10:26:21;;;;;;;3.05;2.13;;;;;;;;;;10397880;28;20029;-58
2022/09/03 10:31:21;;;;;;;2.00;1.80;;;;;;;;;;10393985;28;20220;-55
2022/09/03 10:36:36;;;;;;;4.75;2.20;;;;;;;;;;10417160;28;20209;-57
2022/09/03 10:41:40;;;;;;;3.10;1.48;;;;;;;;;;10430587;28;20116;-56
2022/09/03 10:46:52;;;;;;;4.97;1.90;;;;;;;;;;10430749;28;20029;-47
2022/09/03 10:52:16;;;;;;;4.65;1.88;;;;;;;;;;10418916;28;20021;-58
2022/09/03 10:57:54;;;;;;;2.88;1.88;;;;;;;;;;10406035;28;20053;-57
2022/09/03 11:03:19;;;;;;;4.85;1.58;;;;;;;;;;10405718;28;20401;-57
2022/09/03 11:08:25;;;;;;;6.65;2.10;;;;;;;;;;10412132;28;20083;-58
2022/09/03 11:13:34;;;;;;;6.63;1.75;;;;;;;;;;10417640;28;20290;-55
2022/09/03 11:18:49;;;;;;;2.63;1.95;;;;;;;;;;10427240;28;20033;-55
2022/09/03 11:24:08;;;;;;;3.58;1.75;;;;;;;;;;10434513;28;20148;-49
2022/09/03 11:29:37;;;;;;;7.38;2.13;;;;;;;;;;10423684;28;20553;-49
2022/09/03 11:34:54;;;;;;;5.05;1.70;;;;;;;;;;10410322;28;20030;-52
2022/09/03 11:40:17;;;;;;;7.00;1.85;;;;;;;;;;10422592;28;20488;-52
2022/09/03 11:45:36;;;;;;;4.80;1.88;;;;;;;;;;10409610;28;20468;-53
2022/09/03 11:50:37;;;;;;;4.30;1.75;;;;;;;;;;10413942;28;20052;-57
2022/09/03 11:55:59;;;;;;;4.10;2.20;;;;;;;;;;10415429;28;20137;-55
2022/09/03 12:01:17;;;;;;;2.50;1.48;;;;;;;;;;10379594;28;20442;-51
2022/09/03 12:06:29;;;;;;;3.45;1.75;;;;;;;;;;10424261;28;20039;-51
2022/09/03 12:11:35;;;;;;;3.33;1.83;;;;;;;;;;10410883;28;20104;-55
2022/09/03 12:17:14;;;;;;;3.95;1.67;;;;;;;;;;10424498;28;20025;-54
2022/09/03 12:22:16;;;;;;;4.10;1.90;;;;;;;;;;10425532;28;20025;-53
2022/09/03 12:27:23;;;;;;;3.28;1.80;;;;;;;;;;10414218;28;20195;-52
2022/09/03 12:32:27;;;;;;;5.22;1.88;;;;;;;;;;10424801;28;20025;-55
2022/09/03 12:37:35;;;;;;;5.68;1.55;;;;;;;;;;10427998;28;20025;-55
2022/09/03 12:42:35;;;;;;;;;;;;;;;;;;10427240;28;20020;-54
2022/09/03 12:47:39;;;;;;;7.63;1.98;;;;;;;;;;10427383;28;19917;-57
2022/09/03 12:52:49;;;;;;;8.07;1.88;;;;;;;;;;10410358;28;20116;-55
2022/09/03 12:57:55;;;;;;;4.65;1.60;;;;;;;;;;10423222;28;20481;-53
2022/09/03 13:03:10;;;;;;;6.10;1.85;;;;;;;;;;10422626;28;20094;-55
2022/09/03 13:08:23;;;;;;;4.45;1.70;;;;;;;;;;10429706;28;20021;-56
2022/09/03 13:13:38;;;;;;;4.00;1.85;;;;;;;;;;10421525;28;20083;-55
2022/09/03 13:19:07;;;;;;;10.35;1.80;;;;;;;;;;10427255;28;20124;-56
2022/09/03 13:24:33;;;;;;;3.13;1.52;;;;;;;;;;10423907;28;20357;-56
2022/09/03 13:29:48;;;;;;;3.63;2.10;;;;;;;;;;10419118;28;20453;-61
2022/09/03 13:34:54;;;;;;;5.13;1.75;;;;;;;;;;10413894;28;20365;-60
2022/09/03 13:40:08;;;;;;;5.43;1.77;;;;;;;;;;10413992;28;20087;-60
2022/09/03 13:45:40;;;;;;;3.78;1.85;;;;;;;;;;10440775;28;20041;-57
2022/09/03 13:50:48;;;;;;;2.58;1.80;;;;;;;;;;10427265;28;20063;-59
2022/09/03 13:55:53;;;;;;;3.73;1.60;;;;;;;;;;10419583;28;20375;-60
2022/09/03 14:00:57;;;;;;;2.45;1.45;;;;;;;;;;10404725;28;20124;-60
2022/09/03 14:06:24;;;;;;;3.50;1.60;;;;;;;;;;10413769;28;20052;-52
2022/09/03 14:11:42;;;;;;;2.30;1.65;;;;;;;;;;10427534;28;20022;-49
2022/09/03 14:16:56;;;;;;;2.63;1.50;;;;;;;;;;10414885;28;20508;-49
2022/09/03 14:22:21;;;;;;;2.47;1.50;;;;;;;;;;10407295;28;20057;-50
2022/09/03 14:27:24;;;;;;;4.93;1.63;;;;;;;;;;10393467;28;20036;-57
2022/09/03 14:32:53;;;;;;;2.60;1.75;;;;;;;;;;10393131;28;20038;-59
2022/09/03 14:38:11;;;;;;;2.60;1.85;;;;;;;;;;10393714;28;20033;-60
2022/09/03 14:43:11;;;;;;;3.75;1.40;;;;;;;;;;10380924;28;20365;-58
2022/09/03 14:48:31;;;;;;;2.83;1.47;;;;;;;;;;10403264;28;20025;-60
2022/09/03 14:54:09;;;;;;;2.15;1.50;;;;;;;;;;10413121;28;21025;-59
2022/09/03 14:59:27;;;;;;;2.13;1.30;;;;;;;;;;10407477;28;20053;-60
2022/09/03 15:04:56;;;;;;;2.22;1.83;;;;;;;;;;10412928;28;20469;-61
2022/09/03 15:10:35;;;;;;;4.07;1.70;;;;;;;;;;10435884;28;20388;-60
2022/09/03 15:16:05;;;;;;;2.38;1.63;;;;;;;;;;10415405;28;20017;-60
2022/09/03 15:21:15;;;;;;;3.58;1.95;;;;;;;;;;10412683;28;20038;-52
2022/09/03 15:26:19;;;;;;;2.65;1.67;;;;;;;;;;10412171;28;20035;-50
2022/09/03 15:31:41;;;;;;;2.90;1.48;;;;;;;;;;10415058;28;20029;-50
2022/09/03 15:36:54;;;;;;;1.80;1.70;;;;;;;;;;10413855;28;20104;-49
2022/09/03 15:42:09;;;;;;;2.70;1.90;;;;;;;;;;10398826;28;20026;-49
2022/09/03 15:47:26;;;;;;;2.10;1.88;;;;;;;;;;10400656;28;21288;-48
2022/09/03 15:52:40;;;;;;;3.22;1.83;;;;;;;;;;10411355;28;20045;-49
2022/09/03 15:58:07;;;;;;;2.55;1.75;;;;;;;;;;10407989;28;20045;-49
2022/09/03 16:03:18;;;;;;;5.05;1.77;;;;;;;;;;10410603;28;20132;-57
2022/09/03 16:08:25;;;;;;;2.65;1.80;;;;;;;;;;10419565;28;20449;-50
2022/09/03 16:13:54;;;;;;;3.03;1.63;;;;;;;;;;10415697;28;20026;-49
2022/09/03 16:18:58;;;;;;;5.95;1.95;;;;;;;;;;10412593;28;20033;-49
2022/09/03 16:24:04;;;;;;;2.22;1.80;;;;;;;;;;10400301;28;20500;-49
2022/09/03 16:29:14;;;;;;;1.63;1.52;;;;;;;;;;10421549;28;20025;-49
2022/09/03 16:34:41;;;;;;;3.08;1.52;;;;;;;;;;10403137;28;20021;-50
2022/09/03 16:40:15;;;;;;;2.83;1.80;;;;;;;;;;10397752;28;20033;-48
2022/09/03 16:45:48;;;;;;;4.55;1.85;;;;;;;;;;10402174;28;20044;-49
2022/09/03 16:50:50;;;;;;;3.58;1.70;;;;;;;;;;10408315;28;20017;-49
2022/09/03 16:55:51;;;;;;;1.83;1.50;;;;;;;;;;10415009;28;20147;-56
2022/09/03 17:01:17;;;;;;;1.77;1.53;;;;;;;;;;10420066;28;20021;-57
2022/09/03 17:06:55;;;;;;;2.42;1.77;;;;;;;;;;10428032;28;20073;-59
2022/09/03 17:12:07;;;;;;;4.03;1.60;;;;;;;;;;10412470;28;20473;-59
2022/09/03 17:17:45;;;;;;;2.10;1.40;;;;;;;;;;10405897;28;20067;-58
2022/09/03 17:23:08;;;;;;;1.70;1.60;;;;;;;;;;10409147;28;20504;-59
2022/09/03 17:28:31;;;;;;;1.70;1.60;;;;;;;;;;10407819;28;20087;-53
2022/09/03 17:34:04;;;;;;;1.63;1.50;;;;;;;;;;10406263;28;20490;-56
2022/09/03 17:39:07;;;;;;;3.38;1.58;;;;;;;;;;10403177;28;20041;-58
2022/09/03 17:44:29;;;;;;;3.80;1.60;;;;;;;;;;10408664;28;20033;-59
2022/09/03 17:49:43;;;;;;;1.88;1.60;;;;;;;;;;10406271;28;20021;-52
2022/09/03 17:54:49;;;;;;;4.43;1.50;;;;;;;;;;10389464;28;20033;-55
2022/09/03 18:00:21;;;;;;;8.80;2.30;;;;;;;;;;10384951;28;20478;-57
2022/09/03 18:05:24;;;;;;;4.47;2.03;;;;;;;;;;10408943;28;20064;-58
2022/09/03 18:10:38;;;;;;;4.70;2.22;;;;;;;;;;10411932;28;20397;-56
2022/09/03 18:15:53;;;;;;;6.35;2.50;;;;;;;;;;10415787;28;20038;-51
2022/09/03 20:10:36;;;;;;;3.72;2.72;;;;;;;;;;10394521;28;20113;-60
2022/09/03 20:16:00;;;;;;;3.75;2.47;;;;;;;;;;10404372;28;20056;-57
2022/09/03 20:21:23;;;;;;;4.25;2.42;;;;;;;;;;10408246;28;20477;-58
2022/09/03 20:27:00;;;;;;;7.80;3.17;;;;;;;;;;10413443;28;20039;-51
2022/09/03 20:32:37;;;;;;;4.45;2.58;;;;;;;;;;10406992;28;20033;-58
2022/09/03 20:37:49;;;;;;;5.40;2.70;;;;;;;;;;10409932;28;20493;-56
2022/09/03 20:43:19;;;;;;;4.68;2.40;;;;;;;;;;10415964;28;20552;-64
2022/09/03 20:48:35;;;;;;;4.10;2.38;;;;;;;;;;10404212;28;20076;-53
2022/09/03 20:54:08;;;;;;;8.70;2.85;;;;;;;;;;10390346;28;20501;-53
2022/09/03 21:00:04;;;;;;;5.80;2.25;;;;;;;;;;10395618;28;20042;-53
2022/09/03 21:05:28;;;;;;;5.28;2.00;;;;;;;;;;10379506;28;20037;-66
2022/09/03 21:10:36;;;;;;;3.58;2.17;;;;;;;;;;10409125;28;20084;-63
2022/09/03 21:15:55;;;;;;;2.15;1.80;;;;;;;;;;10404803;28;20029;-62
2022/09/03 21:21:37;;;;;;;2.80;2.00;;;;;;;;;;10414807;28;20038;-63
2022/09/03 21:26:44;;;;;;;6.45;2.42;;;;;;;;;;10403037;28;20122;-68
2022/09/03 21:31:53;;;;;;;3.00;1.95;;;;;;;;;;10406638;28;20168;-54
2022/09/03 21:36:54;;;;;;;;;;;;;;;;;;10406733;28;20101;-68
2022/09/03 21:42:04;;;;;;;3.55;2.28;;;;;;;;;;10405049;28;20373;-67
2022/09/03 21:47:20;;;;;;;3.35;2.28;;;;;;;;;;10405173;28;20034;-62
2022/09/03 21:52:32;;;;;;;5.57;1.90;;;;;;;;;;10405879;28;20400;-64
2022/09/03 21:57:58;;;;;;;9.30;1.70;;;;;;;;;;10405301;28;20095;-63
2022/09/03 22:02:59;;;;;;;4.70;1.60;;;;;;;;;;10391538;28;20030;-64
2022/09/03 22:08:00;;;;;;;18.77;2.47;;;;;;;;;;10387799;28;20100;-60
2022/09/03 22:13:16;;;;;;;5.70;2.20;;;;;;;;;;10380900;28;20029;-65
2022/09/03 22:18:27;;;;;;;4.22;1.75;;;;;;;;;;10407760;28;20029;-63
2022/09/03 22:23:41;;;;;;;3.47;1.77;;;;;;;;;;10399578;28;20044;-62
2022/09/03 22:28:50;;;;;;;4.20;2.42;;;;;;;;;;10403219;28;20025;-63
2022/09/03 22:33:53;;;;;;;2.35;1.52;;;;;;;;;;10406326;28;20091;-63
2022/09/03 22:39:18;;;;;;;4.80;1.48;;;;;;;;;;10392327;28;20033;-55
2022/09/03 22:44:41;;;;;;;3.33;1.63;;;;;;;;;;10397420;28;20113;-64
2022/09/03 22:50:10;;;;;;;2.92;1.70;;;;;;;;;;10398576;28;20080;-63
2022/09/03 22:55:24;;;;;;;4.60;1.75;;;;;;;;;;10408037;28;20144;-54
2022/09/03 23:00:25;;;;;;;3.00;1.83;;;;;;;;;;10372882;28;20038;-54
2022/09/03 23:05:57;;;;;;;2.88;1.60;;;;;;;;;;10390908;28;20116;-53
2022/09/03 23:11:24;;;;;;;6.07;1.85;;;;;;;;;;10388367;28;20132;-63
2022/09/03 23:16:36;;;;;;;3.92;1.52;;;;;;;;;;10417387;28;20037;-63
2022/09/03 23:21:39;;;;;;;1.67;1.58;;;;;;;;;;10433664;28;20025;-62
2022/09/03 23:26:45;;;;;;;4.85;1.58;;;;;;;;;;10436425;28;20035;-64
2022/09/03 23:31:45;;;;;;;4.95;1.55;;;;;;;;;;10423736;28;20032;-63
2022/09/03 23:36:54;;;;;;;3.87;1.67;;;;;;;;;;10446202;28;20022;-62
2022/09/03 23:42:15;;;;;;;2.30;1.55;;;;;;;;;;10424183;28;21016;-63
2022/09/03 23:47:19;;;;;;;3.67;1.50;;;;;;;;;;10424246;28;20099;-57
2022/09/03 23:52:46;;;;;;;1.45;1.10;;;;;;;;;;10422972;28;20085;-61
2022/09/03 23:57:50;;;;;;;;;;;;;;;;;;10410336;28;20054;-64
